sensor_id;sensor_type;location;lat;lon;timestamp;P1;durP1;ratioP1;P2;durP2;ratioP2
16689;SDS011;8458;52.220;9.884;2022-07-06T00:01:10;1.37;;;0.53;;
16689;SDS011;8458;52.220;9.884;2022-07-06T00:03:38;1.40;;;0.60;;
16689;SDS011;8458;52.220;9.884;2022-07-06T00:06:05;2.40;;;0.77;;
16689;SDS011;8458;52.220;9.884;2022-07-06T00:08:31;2.93;;;0.80;;
16689;SDS011;8458;52.220;9.884;2022-07-06T00:10:58;0.83;;;0.40;;
16689;SDS011;8458;52.220;9.884;2022-07-06T00:13:24;2.63;;;0.57;;
16689;SDS011;8458;52.220;9.884;2022-07-06T00:15:51;1.47;;;0.60;;
16689;SDS011;8458;52.220;9.884;2022-07-06T00:18:17;1.57;;;0.60;;
16689;SDS011;8458;52.220;9.884;2022-07-06T00:20:45;2.23;;;0.80;;
16689;SDS011;8458;52.220;9.884;2022-07-06T00:23:12;0.70;;;0.40;;
16689;SDS011;8458;52.220;9.884;2022-07-06T00:25:38;1.03;;;0.60;;
16689;SDS011;8458;52.220;9.884;2022-07-06T00:28:05;1.20;;;0.60;;
16689;SDS011;8458;52.220;9.884;2022-07-06T00:30:32;1.13;;;0.60;;
16689;SDS011;8458;52.220;9.884;2022-07-06T00:32:58;1.67;;;0.60;;
16689;SDS011;8458;52.220;9.884;2022-07-06T00:35:25;1.17;;;0.40;;
16689;SDS011;8458;52.220;9.884;2022-07-06T00:37:53;0.93;;;0.40;;
16689;SDS011;8458;52.220;9.884;2022-07-06T00:40:20;1.03;;;0.50;;
16689;SDS011;8458;52.220;9.884;2022-07-06T00:42:47;0.80;;;0.50;;
16689;SDS011;8458;52.220;9.884;2022-07-06T00:45:16;1.27;;;0.57;;
16689;SDS011;8458;52.220;9.884;2022-07-06T00:47:43;1.03;;;0.40;;
16689;SDS011;8458;52.220;9.884;2022-07-06T00:50:11;1.27;;;0.53;;
16689;SDS011;8458;52.220;9.884;2022-07-06T00:52:43;1.23;;;0.50;;
16689;SDS011;8458;52.220;9.884;2022-07-06T00:55:13;1.03;;;0.53;;
16689;SDS011;8458;52.220;9.884;2022-07-06T00:57:41;1.27;;;0.50;;
16689;SDS011;8458;52.220;9.884;2022-07-06T01:00:09;0.83;;;0.70;;
16689;SDS011;8458;52.220;9.884;2022-07-06T01:02:37;1.43;;;0.50;;
16689;SDS011;8458;52.220;9.884;2022-07-06T01:05:04;0.60;;;0.60;;
16689;SDS011;8458;52.220;9.884;2022-07-06T01:07:33;1.90;;;0.47;;
16689;SDS011;8458;52.220;9.884;2022-07-06T01:10:00;0.93;;;0.50;;
16689;SDS011;8458;52.220;9.884;2022-07-06T01:12:29;3.70;;;0.70;;
16689;SDS011;8458;52.220;9.884;2022-07-06T01:14:56;2.00;;;0.60;;
16689;SDS011;8458;52.220;9.884;2022-07-06T01:17:23;1.40;;;0.50;;
16689;SDS011;8458;52.220;9.884;2022-07-06T01:19:50;0.97;;;0.50;;
16689;SDS011;8458;52.220;9.884;2022-07-06T01:22:18;0.90;;;0.50;;
16689;SDS011;8458;52.220;9.884;2022-07-06T01:24:44;1.33;;;0.40;;
16689;SDS011;8458;52.220;9.884;2022-07-06T01:27:11;0.57;;;0.50;;
16689;SDS011;8458;52.220;9.884;2022-07-06T01:29:37;1.30;;;0.70;;
16689;SDS011;8458;52.220;9.884;2022-07-06T01:32:04;2.07;;;0.67;;
16689;SDS011;8458;52.220;9.884;2022-07-06T01:34:31;1.27;;;0.50;;
16689;SDS011;8458;52.220;9.884;2022-07-06T01:36:58;0.53;;;0.40;;
16689;SDS011;8458;52.220;9.884;2022-07-06T01:39:25;1.93;;;0.50;;
16689;SDS011;8458;52.220;9.884;2022-07-06T01:41:52;1.27;;;0.50;;
16689;SDS011;8458;52.220;9.884;2022-07-06T01:44:18;0.93;;;0.50;;
16689;SDS011;8458;52.220;9.884;2022-07-06T01:46:45;1.33;;;0.40;;
16689;SDS011;8458;52.220;9.884;2022-07-06T01:49:12;1.00;;;0.50;;
16689;SDS011;8458;52.220;9.884;2022-07-06T01:51:38;0.80;;;0.43;;
16689;SDS011;8458;52.220;9.884;2022-07-06T01:54:05;0.40;;;0.40;;
16689;SDS011;8458;52.220;9.884;2022-07-06T01:56:33;0.83;;;0.50;;
16689;SDS011;8458;52.220;9.884;2022-07-06T01:59:00;1.37;;;0.53;;
16689;SDS011;8458;52.220;9.884;2022-07-06T02:01:26;0.53;;;0.37;;
16689;SDS011;8458;52.220;9.884;2022-07-06T02:03:53;1.80;;;0.60;;
16689;SDS011;8458;52.220;9.884;2022-07-06T02:06:19;1.20;;;0.60;;
16689;SDS011;8458;52.220;9.884;2022-07-06T02:08:46;1.33;;;0.50;;
16689;SDS011;8458;52.220;9.884;2022-07-06T02:11:12;2.30;;;0.60;;
16689;SDS011;8458;52.220;9.884;2022-07-06T02:13:40;1.23;;;0.50;;
16689;SDS011;8458;52.220;9.884;2022-07-06T02:16:06;1.90;;;0.60;;
16689;SDS011;8458;52.220;9.884;2022-07-06T02:18:33;1.03;;;0.50;;
16689;SDS011;8458;52.220;9.884;2022-07-06T02:21:00;0.83;;;0.67;;
16689;SDS011;8458;52.220;9.884;2022-07-06T02:23:27;1.33;;;0.60;;
16689;SDS011;8458;52.220;9.884;2022-07-06T02:25:53;1.43;;;0.47;;
16689;SDS011;8458;52.220;9.884;2022-07-06T02:28:20;1.13;;;0.50;;
16689;SDS011;8458;52.220;9.884;2022-07-06T02:30:47;2.50;;;0.70;;
16689;SDS011;8458;52.220;9.884;2022-07-06T02:33:14;1.57;;;0.70;;
16689;SDS011;8458;52.220;9.884;2022-07-06T02:35:41;0.60;;;0.30;;
16689;SDS011;8458;52.220;9.884;2022-07-06T02:38:08;0.90;;;0.40;;
16689;SDS011;8458;52.220;9.884;2022-07-06T02:40:34;0.47;;;0.33;;
16689;SDS011;8458;52.220;9.884;2022-07-06T02:43:01;0.77;;;0.50;;
16689;SDS011;8458;52.220;9.884;2022-07-06T02:45:28;1.03;;;0.40;;
16689;SDS011;8458;52.220;9.884;2022-07-06T02:47:55;1.07;;;0.50;;
16689;SDS011;8458;52.220;9.884;2022-07-06T02:50:22;0.70;;;0.57;;
16689;SDS011;8458;52.220;9.884;2022-07-06T02:52:49;1.30;;;0.50;;
16689;SDS011;8458;52.220;9.884;2022-07-06T02:55:16;1.47;;;0.50;;
16689;SDS011;8458;52.220;9.884;2022-07-06T02:57:42;0.93;;;0.50;;
16689;SDS011;8458;52.220;9.884;2022-07-06T03:00:09;0.60;;;0.50;;
16689;SDS011;8458;52.220;9.884;2022-07-06T03:02:36;1.73;;;0.53;;
16689;SDS011;8458;52.220;9.884;2022-07-06T03:05:04;1.53;;;0.57;;
16689;SDS011;8458;52.220;9.884;2022-07-06T03:07:32;0.80;;;0.50;;
16689;SDS011;8458;52.220;9.884;2022-07-06T03:09:58;1.50;;;0.50;;
16689;SDS011;8458;52.220;9.884;2022-07-06T03:12:25;0.77;;;0.40;;
16689;SDS011;8458;52.220;9.884;2022-07-06T03:14:51;2.37;;;0.50;;
16689;SDS011;8458;52.220;9.884;2022-07-06T03:17:18;1.00;;;0.43;;
16689;SDS011;8458;52.220;9.884;2022-07-06T03:19:46;1.57;;;0.57;;
16689;SDS011;8458;52.220;9.884;2022-07-06T03:22:14;2.73;;;0.60;;
16689;SDS011;8458;52.220;9.884;2022-07-06T03:24:41;1.40;;;0.50;;
16689;SDS011;8458;52.220;9.884;2022-07-06T03:27:07;1.37;;;0.60;;
16689;SDS011;8458;52.220;9.884;2022-07-06T03:29:34;1.93;;;0.50;;
16689;SDS011;8458;52.220;9.884;2022-07-06T03:32:00;2.43;;;0.60;;
16689;SDS011;8458;52.220;9.884;2022-07-06T03:34:27;0.40;;;0.40;;
16689;SDS011;8458;52.220;9.884;2022-07-06T03:36:53;2.10;;;0.70;;
16689;SDS011;8458;52.220;9.884;2022-07-06T03:39:22;1.70;;;0.60;;
16689;SDS011;8458;52.220;9.884;2022-07-06T03:41:48;1.03;;;0.60;;
16689;SDS011;8458;52.220;9.884;2022-07-06T03:44:15;2.10;;;0.60;;
16689;SDS011;8458;52.220;9.884;2022-07-06T03:46:41;2.03;;;0.60;;
16689;SDS011;8458;52.220;9.884;2022-07-06T03:49:08;1.43;;;0.50;;
16689;SDS011;8458;52.220;9.884;2022-07-06T03:51:34;0.83;;;0.50;;
16689;SDS011;8458;52.220;9.884;2022-07-06T03:54:01;2.80;;;1.20;;
16689;SDS011;8458;52.220;9.884;2022-07-06T03:56:28;2.20;;;0.50;;
16689;SDS011;8458;52.220;9.884;2022-07-06T03:58:57;2.33;;;0.60;;
16689;SDS011;8458;52.220;9.884;2022-07-06T04:01:25;0.80;;;0.50;;
16689;SDS011;8458;52.220;9.884;2022-07-06T04:03:52;1.07;;;0.50;;
16689;SDS011;8458;52.220;9.884;2022-07-06T04:06:19;1.23;;;0.50;;
16689;SDS011;8458;52.220;9.884;2022-07-06T04:08:45;0.83;;;0.50;;
16689;SDS011;8458;52.220;9.884;2022-07-06T04:11:12;1.53;;;0.70;;
16689;SDS011;8458;52.220;9.884;2022-07-06T04:13:40;2.30;;;0.70;;
16689;SDS011;8458;52.220;9.884;2022-07-06T04:16:06;1.20;;;0.60;;
16689;SDS011;8458;52.220;9.884;2022-07-06T04:18:33;0.80;;;0.60;;
16689;SDS011;8458;52.220;9.884;2022-07-06T04:21:00;2.40;;;0.60;;
16689;SDS011;8458;52.220;9.884;2022-07-06T04:23:27;2.07;;;0.60;;
16689;SDS011;8458;52.220;9.884;2022-07-06T04:25:54;1.17;;;0.60;;
16689;SDS011;8458;52.220;9.884;2022-07-06T04:28:20;1.23;;;0.60;;
16689;SDS011;8458;52.220;9.884;2022-07-06T04:30:48;1.07;;;0.50;;
16689;SDS011;8458;52.220;9.884;2022-07-06T04:33:15;1.53;;;0.70;;
16689;SDS011;8458;52.220;9.884;2022-07-06T04:35:42;2.27;;;0.53;;
16689;SDS011;8458;52.220;9.884;2022-07-06T04:38:08;1.23;;;0.43;;
16689;SDS011;8458;52.220;9.884;2022-07-06T04:40:35;2.67;;;0.57;;
16689;SDS011;8458;52.220;9.884;2022-07-06T04:43:01;1.53;;;0.60;;
16689;SDS011;8458;52.220;9.884;2022-07-06T04:45:28;1.43;;;0.80;;
16689;SDS011;8458;52.220;9.884;2022-07-06T04:47:56;1.57;;;0.60;;
16689;SDS011;8458;52.220;9.884;2022-07-06T04:50:22;1.57;;;0.80;;
16689;SDS011;8458;52.220;9.884;2022-07-06T04:52:49;1.93;;;0.60;;
16689;SDS011;8458;52.220;9.884;2022-07-06T04:55:15;0.80;;;0.53;;
16689;SDS011;8458;52.220;9.884;2022-07-06T04:57:41;2.50;;;0.67;;
16689;SDS011;8458;52.220;9.884;2022-07-06T05:00:08;1.57;;;0.60;;
16689;SDS011;8458;52.220;9.884;2022-07-06T05:02:36;2.67;;;0.80;;
16689;SDS011;8458;52.220;9.884;2022-07-06T05:05:04;2.60;;;0.70;;
16689;SDS011;8458;52.220;9.884;2022-07-06T05:07:31;1.63;;;0.70;;
16689;SDS011;8458;52.220;9.884;2022-07-06T05:09:59;1.40;;;0.50;;
16689;SDS011;8458;52.220;9.884;2022-07-06T05:12:25;1.20;;;0.50;;
16689;SDS011;8458;52.220;9.884;2022-07-06T05:14:52;0.60;;;0.50;;
16689;SDS011;8458;52.220;9.884;2022-07-06T05:17:18;1.70;;;0.70;;
16689;SDS011;8458;52.220;9.884;2022-07-06T05:19:45;2.47;;;0.77;;
16689;SDS011;8458;52.220;9.884;2022-07-06T05:22:13;1.57;;;0.67;;
16689;SDS011;8458;52.220;9.884;2022-07-06T05:24:39;1.10;;;0.60;;
16689;SDS011;8458;52.220;9.884;2022-07-06T05:27:05;2.77;;;0.90;;
16689;SDS011;8458;52.220;9.884;2022-07-06T05:29:32;2.37;;;0.60;;
16689;SDS011;8458;52.220;9.884;2022-07-06T05:31:59;2.37;;;0.70;;
16689;SDS011;8458;52.220;9.884;2022-07-06T05:34:25;1.77;;;0.80;;
16689;SDS011;8458;52.220;9.884;2022-07-06T05:36:52;1.27;;;0.60;;
16689;SDS011;8458;52.220;9.884;2022-07-06T05:39:19;1.60;;;0.60;;
16689;SDS011;8458;52.220;9.884;2022-07-06T05:41:47;2.97;;;0.90;;
16689;SDS011;8458;52.220;9.884;2022-07-06T05:44:14;2.23;;;0.70;;
16689;SDS011;8458;52.220;9.884;2022-07-06T05:46:41;1.37;;;0.70;;
16689;SDS011;8458;52.220;9.884;2022-07-06T05:49:07;1.27;;;0.83;;
16689;SDS011;8458;52.220;9.884;2022-07-06T05:52:00;2.37;;;0.80;;
16689;SDS011;8458;52.220;9.884;2022-07-06T05:54:27;3.17;;;0.80;;
16689;SDS011;8458;52.220;9.884;2022-07-06T05:56:54;2.03;;;0.60;;
16689;SDS011;8458;52.220;9.884;2022-07-06T05:59:20;2.47;;;0.80;;
16689;SDS011;8458;52.220;9.884;2022-07-06T06:01:47;2.00;;;0.50;;
16689;SDS011;8458;52.220;9.884;2022-07-06T06:04:14;3.33;;;0.50;;
16689;SDS011;8458;52.220;9.884;2022-07-06T06:06:40;3.33;;;0.70;;
16689;SDS011;8458;52.220;9.884;2022-07-06T06:09:07;2.43;;;0.90;;
16689;SDS011;8458;52.220;9.884;2022-07-06T06:11:34;2.23;;;0.80;;
16689;SDS011;8458;52.220;9.884;2022-07-06T06:14:01;1.63;;;0.67;;
16689;SDS011;8458;52.220;9.884;2022-07-06T06:16:28;1.77;;;0.70;;
16689;SDS011;8458;52.220;9.884;2022-07-06T06:18:55;1.33;;;0.63;;
16689;SDS011;8458;52.220;9.884;2022-07-06T06:21:21;2.80;;;0.80;;
16689;SDS011;8458;52.220;9.884;2022-07-06T06:23:48;2.17;;;0.60;;
16689;SDS011;8458;52.220;9.884;2022-07-06T06:26:16;2.17;;;0.80;;
16689;SDS011;8458;52.220;9.884;2022-07-06T06:28:44;1.27;;;0.73;;
16689;SDS011;8458;52.220;9.884;2022-07-06T06:31:10;1.90;;;0.60;;
16689;SDS011;8458;52.220;9.884;2022-07-06T06:33:37;1.57;;;0.60;;
16689;SDS011;8458;52.220;9.884;2022-07-06T06:36:03;2.37;;;0.73;;
16689;SDS011;8458;52.220;9.884;2022-07-06T06:38:30;1.73;;;0.60;;
16689;SDS011;8458;52.220;9.884;2022-07-06T06:40:57;2.07;;;0.90;;
16689;SDS011;8458;52.220;9.884;2022-07-06T06:43:23;1.97;;;0.60;;
16689;SDS011;8458;52.220;9.884;2022-07-06T06:45:51;1.30;;;0.67;;
16689;SDS011;8458;52.220;9.884;2022-07-06T06:48:18;3.13;;;0.80;;
16689;SDS011;8458;52.220;9.884;2022-07-06T06:50:45;0.80;;;0.43;;
16689;SDS011;8458;52.220;9.884;2022-07-06T06:53:12;1.80;;;0.60;;
16689;SDS011;8458;52.220;9.884;2022-07-06T06:55:38;0.93;;;0.40;;
16689;SDS011;8458;52.220;9.884;2022-07-06T06:58:05;1.10;;;0.40;;
16689;SDS011;8458;52.220;9.884;2022-07-06T07:00:32;2.23;;;0.50;;
16689;SDS011;8458;52.220;9.884;2022-07-06T07:03:00;1.20;;;0.30;;
16689;SDS011;8458;52.220;9.884;2022-07-06T07:05:26;1.30;;;0.50;;
16689;SDS011;8458;52.220;9.884;2022-07-06T07:07:53;2.03;;;0.40;;
16689;SDS011;8458;52.220;9.884;2022-07-06T07:10:23;2.17;;;0.50;;
16689;SDS011;8458;52.220;9.884;2022-07-06T07:12:51;0.90;;;0.33;;
16689;SDS011;8458;52.220;9.884;2022-07-06T07:15:18;1.20;;;0.30;;
16689;SDS011;8458;52.220;9.884;2022-07-06T07:17:44;2.50;;;0.50;;
16689;SDS011;8458;52.220;9.884;2022-07-06T07:20:12;1.23;;;0.50;;
16689;SDS011;8458;52.220;9.884;2022-07-06T07:22:39;1.30;;;0.40;;
16689;SDS011;8458;52.220;9.884;2022-07-06T07:25:06;1.27;;;0.40;;
16689;SDS011;8458;52.220;9.884;2022-07-06T07:27:33;1.20;;;0.40;;
16689;SDS011;8458;52.220;9.884;2022-07-06T07:30:00;1.23;;;0.27;;
16689;SDS011;8458;52.220;9.884;2022-07-06T07:32:27;1.73;;;0.50;;
16689;SDS011;8458;52.220;9.884;2022-07-06T07:34:54;2.43;;;0.47;;
16689;SDS011;8458;52.220;9.884;2022-07-06T07:37:21;1.03;;;0.50;;
16689;SDS011;8458;52.220;9.884;2022-07-06T07:39:48;1.27;;;0.50;;
16689;SDS011;8458;52.220;9.884;2022-07-06T07:42:14;0.63;;;0.30;;
16689;SDS011;8458;52.220;9.884;2022-07-06T07:44:41;0.60;;;0.40;;
16689;SDS011;8458;52.220;9.884;2022-07-06T07:47:08;2.13;;;0.60;;
16689;SDS011;8458;52.220;9.884;2022-07-06T07:49:34;0.93;;;0.30;;
16689;SDS011;8458;52.220;9.884;2022-07-06T07:52:01;0.53;;;0.30;;
16689;SDS011;8458;52.220;9.884;2022-07-06T07:54:29;1.83;;;0.50;;
16689;SDS011;8458;52.220;9.884;2022-07-06T07:56:56;1.23;;;0.43;;
16689;SDS011;8458;52.220;9.884;2022-07-06T07:59:23;1.33;;;0.40;;
16689;SDS011;8458;52.220;9.884;2022-07-06T08:01:50;0.93;;;0.30;;
16689;SDS011;8458;52.220;9.884;2022-07-06T08:06:59;1.20;;;0.50;;
16689;SDS011;8458;52.220;9.884;2022-07-06T08:09:26;0.47;;;0.20;;
16689;SDS011;8458;52.220;9.884;2022-07-06T08:11:53;0.87;;;0.43;;
16689;SDS011;8458;52.220;9.884;2022-07-06T08:14:20;0.90;;;0.30;;
16689;SDS011;8458;52.220;9.884;2022-07-06T08:16:47;0.97;;;0.30;;
16689;SDS011;8458;52.220;9.884;2022-07-06T08:19:13;0.57;;;0.40;;
16689;SDS011;8458;52.220;9.884;2022-07-06T08:21:40;2.10;;;0.50;;
16689;SDS011;8458;52.220;9.884;2022-07-06T08:24:07;0.60;;;0.20;;
16689;SDS011;8458;52.220;9.884;2022-07-06T08:26:34;2.00;;;0.40;;
16689;SDS011;8458;52.220;9.884;2022-07-06T08:29:03;0.67;;;0.50;;
16689;SDS011;8458;52.220;9.884;2022-07-06T08:31:30;0.97;;;0.30;;
16689;SDS011;8458;52.220;9.884;2022-07-06T08:33:59;1.07;;;0.50;;
16689;SDS011;8458;52.220;9.884;2022-07-06T08:36:25;1.97;;;0.40;;
16689;SDS011;8458;52.220;9.884;2022-07-06T08:38:52;1.07;;;0.43;;
16689;SDS011;8458;52.220;9.884;2022-07-06T08:41:20;0.90;;;0.50;;
16689;SDS011;8458;52.220;9.884;2022-07-06T08:43:48;2.60;;;0.47;;
16689;SDS011;8458;52.220;9.884;2022-07-06T08:46:17;0.60;;;0.33;;
16689;SDS011;8458;52.220;9.884;2022-07-06T08:48:45;1.17;;;0.30;;
16689;SDS011;8458;52.220;9.884;2022-07-06T08:51:12;0.63;;;0.30;;
16689;SDS011;8458;52.220;9.884;2022-07-06T08:53:40;0.80;;;0.27;;
16689;SDS011;8458;52.220;9.884;2022-07-06T08:56:07;1.40;;;0.40;;
16689;SDS011;8458;52.220;9.884;2022-07-06T08:58:34;1.27;;;0.30;;
16689;SDS011;8458;52.220;9.884;2022-07-06T09:01:01;1.20;;;0.37;;
16689;SDS011;8458;52.220;9.884;2022-07-06T09:03:29;1.10;;;0.40;;
16689;SDS011;8458;52.220;9.884;2022-07-06T09:05:58;2.27;;;0.40;;
16689;SDS011;8458;52.220;9.884;2022-07-06T09:08:27;1.03;;;0.40;;
16689;SDS011;8458;52.220;9.884;2022-07-06T09:10:56;0.40;;;0.20;;
16689;SDS011;8458;52.220;9.884;2022-07-06T09:13:23;0.93;;;0.30;;
16689;SDS011;8458;52.220;9.884;2022-07-06T09:15:49;0.83;;;0.27;;
16689;SDS011;8458;52.220;9.884;2022-07-06T09:18:16;1.43;;;0.20;;
16689;SDS011;8458;52.220;9.884;2022-07-06T09:20:44;1.17;;;0.30;;
16689;SDS011;8458;52.220;9.884;2022-07-06T09:23:14;0.67;;;0.30;;
16689;SDS011;8458;52.220;9.884;2022-07-06T09:25:42;0.87;;;0.30;;
16689;SDS011;8458;52.220;9.884;2022-07-06T09:28:13;1.57;;;0.30;;
16689;SDS011;8458;52.220;9.884;2022-07-06T09:30:40;2.27;;;0.30;;
16689;SDS011;8458;52.220;9.884;2022-07-06T09:33:07;0.87;;;0.40;;
16689;SDS011;8458;52.220;9.884;2022-07-06T09:35:35;1.00;;;0.30;;
16689;SDS011;8458;52.220;9.884;2022-07-06T09:38:05;1.23;;;0.30;;
16689;SDS011;8458;52.220;9.884;2022-07-06T09:40:34;0.70;;;0.20;;
16689;SDS011;8458;52.220;9.884;2022-07-06T09:43:12;2.33;;;0.40;;
16689;SDS011;8458;52.220;9.884;2022-07-06T09:45:40;0.83;;;0.40;;
16689;SDS011;8458;52.220;9.884;2022-07-06T09:48:09;2.50;;;0.40;;
16689;SDS011;8458;52.220;9.884;2022-07-06T09:50:46;0.33;;;0.30;;
16689;SDS011;8458;52.220;9.884;2022-07-06T09:53:19;1.10;;;0.33;;
16689;SDS011;8458;52.220;9.884;2022-07-06T09:55:48;0.70;;;0.20;;
16689;SDS011;8458;52.220;9.884;2022-07-06T09:58:16;0.43;;;0.17;;
16689;SDS011;8458;52.220;9.884;2022-07-06T10:00:47;0.40;;;0.20;;
16689;SDS011;8458;52.220;9.884;2022-07-06T10:03:16;0.93;;;0.20;;
16689;SDS011;8458;52.220;9.884;2022-07-06T10:05:44;0.87;;;0.30;;
16689;SDS011;8458;52.220;9.884;2022-07-06T10:08:17;1.70;;;0.43;;
16689;SDS011;8458;52.220;9.884;2022-07-06T10:10:48;0.70;;;0.30;;
16689;SDS011;8458;52.220;9.884;2022-07-06T10:13:19;1.03;;;0.30;;
16689;SDS011;8458;52.220;9.884;2022-07-06T10:15:50;0.87;;;0.20;;
16689;SDS011;8458;52.220;9.884;2022-07-06T10:18:17;1.90;;;0.30;;
16689;SDS011;8458;52.220;9.884;2022-07-06T10:20:49;2.33;;;0.30;;
16689;SDS011;8458;52.220;9.884;2022-07-06T10:23:20;1.07;;;0.40;;
16689;SDS011;8458;52.220;9.884;2022-07-06T10:25:51;1.13;;;0.40;;
16689;SDS011;8458;52.220;9.884;2022-07-06T10:28:27;0.37;;;0.20;;
16689;SDS011;8458;52.220;9.884;2022-07-06T10:31:02;1.90;;;0.40;;
16689;SDS011;8458;52.220;9.884;2022-07-06T10:33:30;0.63;;;0.30;;
16689;SDS011;8458;52.220;9.884;2022-07-06T10:35:58;0.77;;;0.10;;
16689;SDS011;8458;52.220;9.884;2022-07-06T10:38:34;2.40;;;0.37;;
16689;SDS011;8458;52.220;9.884;2022-07-06T10:41:07;1.40;;;0.30;;
16689;SDS011;8458;52.220;9.884;2022-07-06T10:43:35;0.60;;;0.40;;
16689;SDS011;8458;52.220;9.884;2022-07-06T10:46:09;0.97;;;0.30;;
16689;SDS011;8458;52.220;9.884;2022-07-06T10:48:41;0.33;;;0.20;;
16689;SDS011;8458;52.220;9.884;2022-07-06T10:51:09;0.67;;;0.40;;
16689;SDS011;8458;52.220;9.884;2022-07-06T10:53:39;1.17;;;0.30;;
16689;SDS011;8458;52.220;9.884;2022-07-06T10:56:07;0.63;;;0.20;;
16689;SDS011;8458;52.220;9.884;2022-07-06T10:58:38;0.60;;;0.30;;
16689;SDS011;8458;52.220;9.884;2022-07-06T11:01:06;1.03;;;0.20;;
16689;SDS011;8458;52.220;9.884;2022-07-06T11:03:35;0.50;;;0.20;;
16689;SDS011;8458;52.220;9.884;2022-07-06T11:06:07;0.70;;;0.20;;
16689;SDS011;8458;52.220;9.884;2022-07-06T11:08:49;1.13;;;0.30;;
16689;SDS011;8458;52.220;9.884;2022-07-06T11:11:22;0.60;;;0.20;;
16689;SDS011;8458;52.220;9.884;2022-07-06T11:13:55;0.30;;;0.10;;
16689;SDS011;8458;52.220;9.884;2022-07-06T11:16:28;0.87;;;0.20;;
16689;SDS011;8458;52.220;9.884;2022-07-06T11:19:03;1.07;;;0.20;;
16689;SDS011;8458;52.220;9.884;2022-07-06T11:21:47;0.60;;;0.20;;
16689;SDS011;8458;52.220;9.884;2022-07-06T11:24:21;0.87;;;0.30;;
16689;SDS011;8458;52.220;9.884;2022-07-06T11:26:54;1.20;;;0.20;;
16689;SDS011;8458;52.220;9.884;2022-07-06T11:29:27;1.03;;;0.20;;
16689;SDS011;8458;52.220;9.884;2022-07-06T11:31:59;0.53;;;0.20;;
16689;SDS011;8458;52.220;9.884;2022-07-06T11:34:32;0.67;;;0.30;;
16689;SDS011;8458;52.220;9.884;2022-07-06T11:37:02;1.87;;;0.27;;
16689;SDS011;8458;52.220;9.884;2022-07-06T11:39:34;0.63;;;0.30;;
16689;SDS011;8458;52.220;9.884;2022-07-06T11:42:05;0.50;;;0.20;;
16689;SDS011;8458;52.220;9.884;2022-07-06T11:44:35;0.53;;;0.30;;
16689;SDS011;8458;52.220;9.884;2022-07-06T11:47:04;0.50;;;0.20;;
16689;SDS011;8458;52.220;9.884;2022-07-06T11:49:38;0.73;;;0.20;;
16689;SDS011;8458;52.220;9.884;2022-07-06T11:52:08;1.30;;;0.30;;
16689;SDS011;8458;52.220;9.884;2022-07-06T11:54:40;0.57;;;0.30;;
16689;SDS011;8458;52.220;9.884;2022-07-06T11:57:09;1.50;;;0.30;;
16689;SDS011;8458;52.220;9.884;2022-07-06T11:59:37;0.70;;;0.20;;
16689;SDS011;8458;52.220;9.884;2022-07-06T12:02:05;0.90;;;0.10;;
16689;SDS011;8458;52.220;9.884;2022-07-06T12:04:37;0.40;;;0.23;;
16689;SDS011;8458;52.220;9.884;2022-07-06T12:07:07;0.70;;;0.20;;
16689;SDS011;8458;52.220;9.884;2022-07-06T12:09:37;0.50;;;0.20;;
16689;SDS011;8458;52.220;9.884;2022-07-06T12:12:08;0.10;;;0.10;;
16689;SDS011;8458;52.220;9.884;2022-07-06T12:14:39;1.20;;;0.10;;
16689;SDS011;8458;52.220;9.884;2022-07-06T12:17:07;0.53;;;0.20;;
16689;SDS011;8458;52.220;9.884;2022-07-06T12:19:38;0.53;;;0.20;;
16689;SDS011;8458;52.220;9.884;2022-07-06T12:22:06;0.33;;;0.20;;
16689;SDS011;8458;52.220;9.884;2022-07-06T12:24:37;0.77;;;0.20;;
16689;SDS011;8458;52.220;9.884;2022-07-06T12:27:14;0.37;;;0.10;;
16689;SDS011;8458;52.220;9.884;2022-07-06T12:29:43;0.87;;;0.20;;
16689;SDS011;8458;52.220;9.884;2022-07-06T12:32:13;0.90;;;0.20;;
16689;SDS011;8458;52.220;9.884;2022-07-06T12:34:47;0.83;;;0.20;;
16689;SDS011;8458;52.220;9.884;2022-07-06T12:37:32;0.97;;;0.20;;
16689;SDS011;8458;52.220;9.884;2022-07-06T12:40:11;1.10;;;0.20;;
16689;SDS011;8458;52.220;9.884;2022-07-06T12:42:58;1.40;;;0.33;;
16689;SDS011;8458;52.220;9.884;2022-07-06T12:45:31;0.87;;;0.20;;
16689;SDS011;8458;52.220;9.884;2022-07-06T12:48:09;1.37;;;0.20;;
16689;SDS011;8458;52.220;9.884;2022-07-06T12:50:37;1.00;;;0.20;;
16689;SDS011;8458;52.220;9.884;2022-07-06T12:53:24;0.60;;;0.10;;
16689;SDS011;8458;52.220;9.884;2022-07-06T12:56:07;0.63;;;0.13;;
16689;SDS011;8458;52.220;9.884;2022-07-06T12:58:38;0.30;;;0.10;;
16689;SDS011;8458;52.220;9.884;2022-07-06T13:01:19;0.30;;;0.10;;
16689;SDS011;8458;52.220;9.884;2022-07-06T13:03:47;0.80;;;0.20;;
16689;SDS011;8458;52.220;9.884;2022-07-06T13:09:17;0.80;;;0.20;;
16689;SDS011;8458;52.220;9.884;2022-07-06T13:11:50;0.53;;;0.10;;
16689;SDS011;8458;52.220;9.884;2022-07-06T13:14:35;1.07;;;0.10;;
16689;SDS011;8458;52.220;9.884;2022-07-06T13:17:07;1.03;;;0.20;;
16689;SDS011;8458;52.220;9.884;2022-07-06T13:19:47;0.83;;;0.20;;
16689;SDS011;8458;52.220;9.884;2022-07-06T13:22:18;1.23;;;0.20;;
16689;SDS011;8458;52.220;9.884;2022-07-06T13:24:49;0.30;;;0.20;;
16689;SDS011;8458;52.220;9.884;2022-07-06T13:27:30;0.80;;;0.20;;
16689;SDS011;8458;52.220;9.884;2022-07-06T13:30:04;0.20;;;0.10;;
16689;SDS011;8458;52.220;9.884;2022-07-06T13:32:37;0.57;;;0.20;;
16689;SDS011;8458;52.220;9.884;2022-07-06T13:35:07;0.10;;;0.10;;
16689;SDS011;8458;52.220;9.884;2022-07-06T13:37:39;1.67;;;0.23;;
16689;SDS011;8458;52.220;9.884;2022-07-06T13:40:09;0.80;;;0.30;;
16689;SDS011;8458;52.220;9.884;2022-07-06T13:42:39;0.87;;;0.20;;
16689;SDS011;8458;52.220;9.884;2022-07-06T13:45:13;0.47;;;0.20;;
16689;SDS011;8458;52.220;9.884;2022-07-06T13:47:42;1.20;;;0.30;;
16689;SDS011;8458;52.220;9.884;2022-07-06T13:50:13;0.50;;;0.30;;
16689;SDS011;8458;52.220;9.884;2022-07-06T13:52:43;1.17;;;0.30;;
16689;SDS011;8458;52.220;9.884;2022-07-06T13:55:19;1.27;;;0.20;;
16689;SDS011;8458;52.220;9.884;2022-07-06T13:57:50;1.33;;;0.33;;
16689;SDS011;8458;52.220;9.884;2022-07-06T14:00:24;2.90;;;0.53;;
16689;SDS011;8458;52.220;9.884;2022-07-06T14:02:58;1.27;;;0.27;;
16689;SDS011;8458;52.220;9.884;2022-07-06T14:05:31;0.53;;;0.20;;
16689;SDS011;8458;52.220;9.884;2022-07-06T14:08:11;0.40;;;0.20;;
16689;SDS011;8458;52.220;9.884;2022-07-06T14:10:49;1.60;;;0.20;;
16689;SDS011;8458;52.220;9.884;2022-07-06T14:13:22;0.17;;;0.10;;
16689;SDS011;8458;52.220;9.884;2022-07-06T14:16:06;0.30;;;0.17;;
16689;SDS011;8458;52.220;9.884;2022-07-06T14:18:45;0.10;;;0.10;;
16689;SDS011;8458;52.220;9.884;2022-07-06T14:21:17;1.67;;;0.20;;
16689;SDS011;8458;52.220;9.884;2022-07-06T14:23:52;1.50;;;0.27;;
16689;SDS011;8458;52.220;9.884;2022-07-06T14:26:22;0.13;;;0.10;;
16689;SDS011;8458;52.220;9.884;2022-07-06T14:28:58;1.07;;;0.20;;
16689;SDS011;8458;52.220;9.884;2022-07-06T14:31:34;0.70;;;0.30;;
16689;SDS011;8458;52.220;9.884;2022-07-06T14:34:07;1.33;;;0.30;;
16689;SDS011;8458;52.220;9.884;2022-07-06T14:36:44;1.53;;;0.33;;
16689;SDS011;8458;52.220;9.884;2022-07-06T14:39:21;0.13;;;0.10;;
16689;SDS011;8458;52.220;9.884;2022-07-06T14:41:55;0.30;;;0.20;;
16689;SDS011;8458;52.220;9.884;2022-07-06T14:44:21;0.53;;;0.13;;
16689;SDS011;8458;52.220;9.884;2022-07-06T14:46:50;0.60;;;0.20;;
16689;SDS011;8458;52.220;9.884;2022-07-06T14:49:17;2.77;;;0.30;;
16689;SDS011;8458;52.220;9.884;2022-07-06T14:51:43;0.83;;;0.20;;
16689;SDS011;8458;52.220;9.884;2022-07-06T14:54:10;1.33;;;0.50;;
16689;SDS011;8458;52.220;9.884;2022-07-06T14:56:36;0.73;;;0.30;;
16689;SDS011;8458;52.220;9.884;2022-07-06T14:59:03;0.97;;;0.20;;
16689;SDS011;8458;52.220;9.884;2022-07-06T15:01:29;0.77;;;0.20;;
16689;SDS011;8458;52.220;9.884;2022-07-06T15:03:57;0.10;;;0.10;;
16689;SDS011;8458;52.220;9.884;2022-07-06T15:06:24;0.83;;;0.30;;
16689;SDS011;8458;52.220;9.884;2022-07-06T15:08:51;0.37;;;0.20;;
16689;SDS011;8458;52.220;9.884;2022-07-06T15:11:18;0.50;;;0.20;;
16689;SDS011;8458;52.220;9.884;2022-07-06T15:13:44;0.77;;;0.30;;
16689;SDS011;8458;52.220;9.884;2022-07-06T15:16:11;1.60;;;0.30;;